Terminal Aerodrome Forecast
Issued by NWS Medford, OR

Home | Current Version | Previous Version | Text Only | Print | Product List | Glossary On
Versions: 1 2 3 4 5 6 7 8 9 10 11 12 13 14 15 16 17 18 19 20 21 22 23 24 25 26 27 28 29 30
000
FTUS46 KMFR 181203 AAA
TAFMFR
TAF AMD
KMFR 181203Z 1812/1912 15020G33KT P6SM -SHRA SCT040 OVC060
      WS020/20050KT
     FM181500 14020G33KT P6SM -RA SCT030 OVC050 WS020/20050KT
     FM181900 15020G35KT P6SM -RA SCT030 OVC050
     FM182300 15020G35KT P6SM -SHRA SCT020 OVC040
     FM190200 15010KT 6SM -RA OVC025=

USA.gov is the U.S. government's official web portal to all federal, state and local government web resources and services.